createdAt,value
2022-10-25T00:03:35.637Z,15.39
2022-10-25T00:08:38.452Z,15.54
2022-10-25T00:13:41.005Z,15.16
2022-10-25T00:18:44.897Z,15.55
2022-10-25T00:23:48.282Z,15.87
2022-10-25T00:28:54.399Z,15.51
2022-10-25T00:33:58.387Z,15.42
2022-10-25T00:39:01.014Z,15.69
2022-10-25T00:44:46.519Z,15.02
2022-10-25T00:49:56.489Z,15.03
2022-10-25T00:55:00.805Z,14.72
2022-10-25T01:00:03.974Z,14.78
2022-10-25T01:05:09.443Z,14.50
2022-10-25T01:10:12.415Z,14.65
2022-10-25T01:15:15.341Z,14.82
2022-10-25T01:20:53.721Z,15.11
2022-10-25T01:26:18.612Z,15.37
2022-10-25T01:31:31.972Z,15.16
2022-10-25T01:36:46.638Z,15.09
2022-10-25T01:42:01.851Z,15.02
2022-10-25T01:47:10.424Z,15.12
2022-10-25T01:52:13.707Z,14.94
2022-10-25T01:57:35.288Z,14.90
2022-10-25T02:03:01.961Z,14.86
2022-10-25T02:08:10.148Z,14.71
2022-10-25T02:13:19.323Z,14.52
2022-10-25T02:18:26.937Z,14.33
2022-10-25T02:23:31.168Z,14.31
2022-10-25T02:28:35.810Z,14.44
2022-10-25T02:33:39.879Z,14.51
2022-10-25T02:38:43.287Z,14.63
2022-10-25T02:43:46.029Z,14.92
2022-10-25T02:48:50.421Z,14.98
2022-10-25T02:53:52.973Z,14.97
2022-10-25T02:58:57.569Z,14.97
2022-10-25T03:04:01.510Z,13.51
2022-10-25T03:09:04.652Z,13.43
2022-10-25T03:14:07.290Z,13.50
2022-10-25T03:19:11.410Z,13.31
2022-10-25T03:24:14.138Z,12.93
2022-10-25T03:29:16.734Z,12.46
2022-10-25T03:34:20.698Z,12.21
2022-10-25T03:39:23.252Z,12.19
2022-10-25T03:44:25.881Z,11.95
2022-10-25T03:49:29.782Z,12.02
2022-10-25T03:54:32.579Z,11.93
2022-10-25T03:59:35.147Z,12.10
2022-10-25T04:04:39.123Z,12.14
2022-10-25T04:09:41.695Z,12.53
2022-10-25T04:14:44.300Z,12.29
2022-10-25T04:19:48.263Z,12.36
2022-10-25T04:24:50.895Z,12.10
2022-10-25T04:29:53.452Z,12.08
2022-10-25T04:35:00.582Z,12.01
2022-10-25T04:40:03.239Z,12.01
2022-10-25T04:45:06.559Z,11.99
2022-10-25T04:50:11.085Z,11.99
2022-10-25T04:55:13.563Z,11.95
2022-10-25T05:00:16.266Z,12.24
2022-10-25T05:05:20.718Z,12.54
2022-10-25T05:10:23.248Z,12.55
2022-10-25T05:15:25.806Z,12.72
2022-10-25T05:20:30.120Z,13.13
2022-10-25T05:25:32.640Z,13.57
2022-10-25T05:30:35.244Z,13.68
2022-10-25T05:35:39.198Z,13.99
2022-10-25T05:40:41.999Z,13.70
2022-10-25T05:45:44.536Z,13.69
2022-10-25T05:50:51.604Z,13.42
2022-10-25T05:56:00.755Z,12.93
2022-10-25T06:01:03.351Z,13.03
2022-10-25T06:06:10.422Z,13.32
2022-10-25T06:11:15.015Z,13.61
2022-10-25T06:16:20.125Z,14.01
2022-10-25T06:21:26.162Z,14.24
2022-10-25T06:26:31.724Z,14.43
2022-10-25T06:31:34.675Z,14.80
2022-10-25T06:36:38.760Z,14.88
2022-10-25T06:41:41.373Z,15.39
2022-10-25T06:47:12.028Z,15.16
2022-10-25T06:52:08.304Z,15.06
2022-10-25T06:57:10.953Z,15.44
2022-10-25T07:02:13.782Z,15.45
2022-10-25T07:07:17.823Z,15.76
2022-10-25T07:12:20.431Z,15.52
2022-10-25T07:17:23.056Z,15.58
2022-10-25T07:22:27.243Z,15.94
2022-10-25T07:27:33.045Z,16.43
2022-10-25T07:32:40.016Z,16.67
2022-10-25T07:37:46.094Z,16.64
2022-10-25T07:42:50.285Z,16.45
2022-10-25T07:47:53.106Z,16.34
2022-10-25T07:52:57.668Z,15.99
2022-10-25T07:58:01.753Z,16.45
2022-10-25T08:03:04.960Z,16.59
2022-10-25T08:08:09.349Z,16.53
2022-10-25T08:13:12.197Z,16.84
2022-10-25T08:18:14.763Z,16.84
2022-10-25T08:23:18.890Z,16.96
2022-10-25T08:28:21.832Z,16.68
2022-10-25T08:33:25.048Z,16.47
2022-10-25T08:38:29.211Z,16.68
2022-10-25T08:43:49.814Z,16.93
2022-10-25T08:48:57.799Z,16.67
2022-10-25T08:54:06.466Z,16.70
2022-10-25T08:59:13.446Z,16.82
2022-10-25T09:04:16.445Z,17.08
2022-10-25T09:09:34.199Z,16.83
2022-10-25T09:14:49.243Z,17.20
2022-10-25T09:20:04.422Z,17.35
2022-10-25T09:25:21.775Z,17.64
2022-10-25T09:30:24.511Z,16.84
2022-10-25T09:35:34.014Z,16.96
2022-10-25T09:40:47.940Z,17.04
2022-10-25T09:45:54.240Z,17.36
2022-10-25T09:51:05.221Z,17.22
2022-10-25T09:56:09.478Z,17.33
2022-10-25T10:01:14.272Z,17.43
2022-10-25T10:06:19.682Z,17.28
2022-10-25T10:11:24.505Z,16.97
2022-10-25T10:16:31.795Z,18.48
2022-10-25T10:21:36.945Z,19.47
2022-10-25T10:26:47.519Z,22.01
2022-10-25T10:31:52.832Z,20.85
2022-10-25T10:37:08.306Z,19.85
2022-10-25T10:42:17.890Z,19.20
2022-10-25T10:47:24.510Z,18.31
2022-10-25T10:52:31.308Z,18.41
2022-10-25T10:57:36.373Z,18.14
2022-10-25T11:02:42.055Z,17.42
2022-10-25T11:07:44.962Z,18.09
2022-10-25T11:13:06.438Z,17.79
2022-10-25T11:18:11.473Z,17.78
2022-10-25T11:23:22.559Z,18.52
2022-10-25T11:28:42.691Z,18.93
2022-10-25T11:33:58.884Z,21.01
2022-10-25T11:39:12.254Z,24.67
2022-10-25T11:44:45.726Z,26.11
2022-10-25T11:49:59.470Z,27.08
2022-10-25T11:55:12.198Z,23.89
2022-10-25T12:00:19.660Z,21.38
2022-10-25T12:05:29.676Z,19.79
2022-10-25T12:10:36.707Z,20.44
2022-10-25T12:15:46.460Z,20.26
2022-10-25T12:20:51.015Z,20.38
2022-10-25T12:25:57.735Z,19.68
2022-10-25T12:31:07.781Z,19.86
2022-10-25T12:36:24.000Z,19.88
2022-10-25T12:41:30.515Z,20.18
2022-10-25T12:47:16.938Z,22.09
2022-10-25T12:52:29.357Z,24.64
2022-10-25T12:57:47.400Z,21.63
2022-10-25T13:03:30.100Z,20.14
2022-10-25T13:08:34.034Z,19.03
2022-10-25T13:13:40.140Z,20.39
2022-10-25T13:18:46.100Z,21.09
2022-10-25T13:24:02.806Z,24.92
2022-10-25T13:29:46.771Z,23.64
2022-10-25T13:34:50.878Z,20.18
2022-10-25T13:39:55.232Z,20.21
2022-10-25T13:45:00.723Z,19.06
2022-10-25T13:50:13.926Z,18.52
2022-10-25T13:55:21.426Z,20.33
2022-10-25T14:00:39.075Z,21.02
2022-10-25T14:06:22.817Z,19.36
2022-10-25T14:11:35.287Z,18.90
2022-10-25T14:16:45.240Z,18.46
2022-10-25T14:21:51.652Z,18.68
2022-10-25T14:26:56.491Z,21.64
2022-10-25T14:31:59.735Z,24.50
2022-10-25T14:37:04.860Z,22.00
2022-10-25T14:42:17.291Z,23.87
2022-10-25T14:47:40.829Z,25.31
2022-10-25T14:52:47.043Z,21.83
2022-10-25T14:57:49.977Z,20.27
2022-10-25T15:02:56.681Z,19.66
2022-10-25T15:08:01.765Z,19.29
2022-10-25T15:13:36.452Z,18.99
2022-10-25T15:18:39.813Z,18.50
2022-10-25T15:24:29.729Z,18.67
2022-10-25T15:34:58.363Z,18.01
2022-10-25T15:40:01.148Z,18.04
2022-10-25T15:45:05.950Z,18.10
2022-10-25T15:50:15.333Z,17.85
2022-10-25T15:55:20.372Z,17.87
2022-10-25T16:00:28.126Z,17.44
2022-10-25T16:05:33.173Z,16.29
2022-10-25T16:10:36.158Z,16.76
2022-10-25T16:15:40.255Z,16.11
2022-10-25T16:20:43.394Z,15.81
2022-10-25T16:25:46.115Z,15.01
2022-10-25T16:30:50.115Z,14.83
2022-10-25T16:35:52.707Z,14.35
2022-10-25T16:40:57.095Z,13.83
2022-10-25T16:46:00.843Z,13.97
2022-10-25T16:51:03.639Z,14.54
2022-10-25T16:56:07.806Z,14.86
2022-10-25T17:01:21.330Z,13.18
2022-10-25T17:11:47.266Z,13.09
2022-10-25T17:16:51.199Z,13.02
2022-10-25T17:21:53.896Z,13.86
2022-10-25T17:26:56.527Z,14.07
2022-10-25T17:32:01.193Z,13.82
2022-10-25T17:37:03.838Z,13.15
2022-10-25T17:42:06.651Z,12.74
2022-10-25T17:47:12.590Z,12.24
2022-10-25T17:52:15.206Z,11.69
2022-10-25T17:57:17.882Z,11.80
2022-10-25T18:02:21.992Z,11.64
2022-10-25T18:07:28.940Z,11.66
2022-10-25T18:12:33.846Z,11.45
2022-10-25T18:17:37.764Z,11.32
2022-10-25T18:22:40.447Z,11.46
2022-10-25T18:27:45.415Z,11.61
2022-10-25T18:32:49.718Z,11.20
2022-10-25T18:37:52.397Z,10.97
2022-10-25T18:42:54.981Z,10.95
2022-10-25T18:47:59.287Z,10.98
2022-10-25T18:53:02.739Z,11.20
2022-10-25T18:58:06.959Z,12.12
2022-10-25T19:03:12.721Z,12.70
2022-10-25T19:08:15.388Z,12.00
2022-10-25T19:13:19.725Z,12.71
2022-10-25T19:18:25.368Z,12.89
2022-10-25T19:23:27.968Z,12.27
2022-10-25T19:28:30.718Z,11.27
2022-10-25T19:33:34.853Z,11.06
2022-10-25T19:38:38.932Z,11.66
2022-10-25T19:43:41.541Z,11.80
2022-10-25T19:48:45.940Z,11.97
2022-10-25T19:53:49.653Z,12.13
2022-10-25T19:58:52.521Z,12.28
2022-10-25T20:03:58.683Z,12.27
2022-10-25T20:09:02.569Z,12.21
2022-10-25T20:14:05.345Z,12.56
2022-10-25T20:19:13.126Z,12.46
2022-10-25T20:24:15.956Z,12.38
2022-10-25T20:29:21.560Z,12.04
2022-10-25T20:34:25.721Z,11.96
2022-10-25T20:39:28.368Z,12.08
2022-10-25T20:44:30.958Z,12.21
2022-10-25T20:49:34.979Z,12.15
2022-10-25T20:54:37.611Z,11.39
2022-10-25T20:59:40.253Z,11.84
2022-10-25T21:04:53.349Z,11.87
2022-10-25T21:09:56.492Z,11.85
2022-10-25T21:14:59.039Z,11.85
2022-10-25T21:20:03.052Z,10.85
2022-10-25T21:25:06.481Z,11.54
2022-10-25T21:30:10.169Z,10.60
2022-10-25T21:35:14.230Z,10.17
2022-10-25T21:40:17.701Z,9.37
2022-10-25T21:45:20.617Z,9.62
2022-10-25T21:50:24.791Z,10.73
2022-10-25T21:55:27.402Z,10.12
2022-10-25T22:00:29.964Z,9.74
2022-10-25T22:05:33.930Z,9.41
2022-10-25T22:10:36.600Z,9.29
2022-10-25T22:15:39.107Z,8.93
2022-10-25T22:20:43.073Z,9.33
2022-10-25T22:25:45.866Z,9.97
2022-10-25T22:30:48.470Z,9.37
2022-10-25T22:35:52.426Z,9.72
2022-10-25T22:40:59.041Z,10.42
2022-10-25T22:46:01.843Z,9.76
2022-10-25T22:51:06.574Z,10.14
2022-10-25T22:56:12.240Z,9.97
2022-10-25T23:01:17.139Z,8.40
2022-10-25T23:06:22.939Z,8.16
2022-10-25T23:11:27.600Z,8.20
2022-10-25T23:16:30.933Z,7.99
2022-10-25T23:21:34.967Z,8.40
2022-10-25T23:26:37.562Z,8.02
2022-10-25T23:31:40.161Z,8.05
2022-10-25T23:36:44.458Z,8.14
2022-10-25T23:41:47.222Z,8.28
2022-10-25T23:46:49.814Z,8.86
2022-10-25T23:51:53.800Z,8.84
2022-10-25T23:56:56.555Z,9.25
